sensor_id;sensor_type;location;lat;lon;timestamp;P1;durP1;ratioP1;P2;durP2;ratioP2
11024;SDS011;22890;51.820;8.682;2022-12-16T00:02:04;1.33;;;1.00;;
11024;SDS011;22890;51.820;8.682;2022-12-16T00:04:31;2.13;;;1.93;;
11024;SDS011;22890;51.820;8.682;2022-12-16T00:06:58;1.27;;;0.83;;
11024;SDS011;22890;51.820;8.682;2022-12-16T00:09:25;1.33;;;0.90;;
11024;SDS011;22890;51.820;8.682;2022-12-16T00:11:52;1.60;;;1.30;;
11024;SDS011;22890;51.820;8.682;2022-12-16T00:14:19;2.73;;;1.23;;
11024;SDS011;22890;51.820;8.682;2022-12-16T00:16:47;2.07;;;1.27;;
11024;SDS011;22890;51.820;8.682;2022-12-16T00:19:14;2.90;;;1.60;;
11024;SDS011;22890;51.820;8.682;2022-12-16T00:21:41;1.00;;;0.87;;
11024;SDS011;22890;51.820;8.682;2022-12-16T00:24:08;2.00;;;1.40;;
11024;SDS011;22890;51.820;8.682;2022-12-16T00:26:35;3.63;;;0.90;;
11024;SDS011;22890;51.820;8.682;2022-12-16T00:29:04;2.00;;;1.00;;
11024;SDS011;22890;51.820;8.682;2022-12-16T00:31:31;1.57;;;0.80;;
11024;SDS011;22890;51.820;8.682;2022-12-16T00:33:58;1.17;;;1.03;;
11024;SDS011;22890;51.820;8.682;2022-12-16T00:36:25;2.30;;;1.10;;
11024;SDS011;22890;51.820;8.682;2022-12-16T00:38:52;3.43;;;1.10;;
11024;SDS011;22890;51.820;8.682;2022-12-16T00:41:20;2.00;;;1.17;;
11024;SDS011;22890;51.820;8.682;2022-12-16T00:43:47;1.53;;;0.87;;
11024;SDS011;22890;51.820;8.682;2022-12-16T00:46:14;1.30;;;0.73;;
11024;SDS011;22890;51.820;8.682;2022-12-16T00:48:41;1.87;;;1.10;;
11024;SDS011;22890;51.820;8.682;2022-12-16T00:51:08;3.03;;;0.87;;
11024;SDS011;22890;51.820;8.682;2022-12-16T00:53:35;2.90;;;0.93;;
11024;SDS011;22890;51.820;8.682;2022-12-16T00:56:04;3.27;;;1.07;;
11024;SDS011;22890;51.820;8.682;2022-12-16T00:58:35;1.63;;;0.90;;
11024;SDS011;22890;51.820;8.682;2022-12-16T01:01:03;0.77;;;0.77;;
11024;SDS011;22890;51.820;8.682;2022-12-16T01:03:30;0.93;;;0.83;;
11024;SDS011;22890;51.820;8.682;2022-12-16T01:05:57;0.77;;;0.67;;
11024;SDS011;22890;51.820;8.682;2022-12-16T01:08:24;0.70;;;0.70;;
11024;SDS011;22890;51.820;8.682;2022-12-16T01:10:51;2.73;;;0.70;;
11024;SDS011;22890;51.820;8.682;2022-12-16T01:13:21;0.70;;;0.70;;
11024;SDS011;22890;51.820;8.682;2022-12-16T01:15:49;0.77;;;0.70;;
11024;SDS011;22890;51.820;8.682;2022-12-16T01:18:17;0.80;;;0.77;;
11024;SDS011;22890;51.820;8.682;2022-12-16T01:20:44;1.47;;;0.83;;
11024;SDS011;22890;51.820;8.682;2022-12-16T01:23:11;2.37;;;0.87;;
11024;SDS011;22890;51.820;8.682;2022-12-16T01:25:38;2.67;;;1.20;;
11024;SDS011;22890;51.820;8.682;2022-12-16T01:28:05;1.43;;;0.87;;
11024;SDS011;22890;51.820;8.682;2022-12-16T01:30:33;1.17;;;0.77;;
11024;SDS011;22890;51.820;8.682;2022-12-16T01:33:00;2.50;;;1.03;;
11024;SDS011;22890;51.820;8.682;2022-12-16T01:35:27;1.53;;;0.70;;
11024;SDS011;22890;51.820;8.682;2022-12-16T01:38:14;0.70;;;0.70;;
11024;SDS011;22890;51.820;8.682;2022-12-16T01:40:41;1.00;;;0.77;;
11024;SDS011;22890;51.820;8.682;2022-12-16T01:43:12;0.80;;;0.50;;
11024;SDS011;22890;51.820;8.682;2022-12-16T01:45:39;1.43;;;0.80;;
11024;SDS011;22890;51.820;8.682;2022-12-16T01:48:21;2.10;;;0.70;;
11024;SDS011;22890;51.820;8.682;2022-12-16T01:50:58;0.77;;;0.50;;
11024;SDS011;22890;51.820;8.682;2022-12-16T01:53:29;0.60;;;0.57;;
11024;SDS011;22890;51.820;8.682;2022-12-16T01:55:57;0.50;;;0.50;;
11024;SDS011;22890;51.820;8.682;2022-12-16T01:58:26;0.77;;;0.57;;
11024;SDS011;22890;51.820;8.682;2022-12-16T02:00:56;0.93;;;0.50;;
11024;SDS011;22890;51.820;8.682;2022-12-16T02:03:24;1.53;;;0.70;;
11024;SDS011;22890;51.820;8.682;2022-12-16T02:05:51;5.60;;;0.40;;
11024;SDS011;22890;51.820;8.682;2022-12-16T02:08:20;0.43;;;0.43;;
11024;SDS011;22890;51.820;8.682;2022-12-16T02:11:05;0.67;;;0.20;;
11024;SDS011;22890;51.820;8.682;2022-12-16T02:25:24;2.00;;;0.60;;
11024;SDS011;22890;51.820;8.682;2022-12-16T02:28:07;0.63;;;0.50;;
11024;SDS011;22890;51.820;8.682;2022-12-16T02:31:06;0.50;;;0.40;;
11024;SDS011;22890;51.820;8.682;2022-12-16T02:36:43;1.33;;;0.40;;
11024;SDS011;22890;51.820;8.682;2022-12-16T02:39:13;0.37;;;0.30;;
11024;SDS011;22890;51.820;8.682;2022-12-16T02:45:19;0.40;;;0.40;;
11024;SDS011;22890;51.820;8.682;2022-12-16T02:47:27;0.40;;;0.40;;
11024;SDS011;22890;51.820;8.682;2022-12-16T02:49:54;3.93;;;0.40;;
11024;SDS011;22890;51.820;8.682;2022-12-16T02:52:22;1.23;;;0.40;;
11024;SDS011;22890;51.820;8.682;2022-12-16T02:54:53;0.63;;;0.40;;
11024;SDS011;22890;51.820;8.682;2022-12-16T03:00:11;0.67;;;0.37;;
11024;SDS011;22890;51.820;8.682;2022-12-16T03:02:59;3.50;;;0.50;;
11024;SDS011;22890;51.820;8.682;2022-12-16T03:05:38;0.17;;;0.17;;
11024;SDS011;22890;51.820;8.682;2022-12-16T03:08:11;0.47;;;0.30;;
11024;SDS011;22890;51.820;8.682;2022-12-16T03:10:43;0.50;;;0.40;;
11024;SDS011;22890;51.820;8.682;2022-12-16T03:13:13;0.30;;;0.30;;
11024;SDS011;22890;51.820;8.682;2022-12-16T03:15:43;1.00;;;0.33;;
11024;SDS011;22890;51.820;8.682;2022-12-16T03:18:10;0.20;;;0.20;;
11024;SDS011;22890;51.820;8.682;2022-12-16T03:20:49;0.10;;;0.10;;
11024;SDS011;22890;51.820;8.682;2022-12-16T03:23:24;0.23;;;0.23;;
11024;SDS011;22890;51.820;8.682;2022-12-16T03:26:01;0.20;;;0.20;;
11024;SDS011;22890;51.820;8.682;2022-12-16T03:31:30;0.67;;;0.50;;
11024;SDS011;22890;51.820;8.682;2022-12-16T03:36:56;0.20;;;0.20;;
11024;SDS011;22890;51.820;8.682;2022-12-16T03:39:27;0.47;;;0.30;;
11024;SDS011;22890;51.820;8.682;2022-12-16T03:41:57;0.30;;;0.30;;
11024;SDS011;22890;51.820;8.682;2022-12-16T03:44:24;0.30;;;0.30;;
11024;SDS011;22890;51.820;8.682;2022-12-16T03:46:52;0.73;;;0.63;;
11024;SDS011;22890;51.820;8.682;2022-12-16T03:49:20;0.40;;;0.40;;
11024;SDS011;22890;51.820;8.682;2022-12-16T03:51:48;0.23;;;0.23;;
11024;SDS011;22890;51.820;8.682;2022-12-16T03:54:15;0.20;;;0.20;;
11024;SDS011;22890;51.820;8.682;2022-12-16T03:56:44;0.10;;;0.10;;
11024;SDS011;22890;51.820;8.682;2022-12-16T03:59:11;0.27;;;0.20;;
11024;SDS011;22890;51.820;8.682;2022-12-16T04:01:39;0.40;;;0.40;;
11024;SDS011;22890;51.820;8.682;2022-12-16T04:04:06;0.50;;;0.50;;
11024;SDS011;22890;51.820;8.682;2022-12-16T04:06:33;0.43;;;0.43;;
11024;SDS011;22890;51.820;8.682;2022-12-16T04:09:00;0.10;;;0.10;;
11024;SDS011;22890;51.820;8.682;2022-12-16T04:11:27;0.30;;;0.30;;
11024;SDS011;22890;51.820;8.682;2022-12-16T04:14:13;0.10;;;0.10;;
11024;SDS011;22890;51.820;8.682;2022-12-16T04:16:59;0.30;;;0.20;;
11024;SDS011;22890;51.820;8.682;2022-12-16T04:19:45;0.40;;;0.40;;
11024;SDS011;22890;51.820;8.682;2022-12-16T04:22:35;2.33;;;0.57;;
11024;SDS011;22890;51.820;8.682;2022-12-16T04:25:25;0.57;;;0.13;;
11024;SDS011;22890;51.820;8.682;2022-12-16T04:27:54;0.20;;;0.20;;
11024;SDS011;22890;51.820;8.682;2022-12-16T04:30:24;0.30;;;0.30;;
11024;SDS011;22890;51.820;8.682;2022-12-16T04:32:53;0.20;;;0.20;;
11024;SDS011;22890;51.820;8.682;2022-12-16T04:35:41;0.20;;;0.20;;
11024;SDS011;22890;51.820;8.682;2022-12-16T04:38:27;0.20;;;0.20;;
11024;SDS011;22890;51.820;8.682;2022-12-16T04:41:12;0.17;;;0.17;;
11024;SDS011;22890;51.820;8.682;2022-12-16T04:43:58;0.40;;;0.27;;
11024;SDS011;22890;51.820;8.682;2022-12-16T04:46:44;3.50;;;0.90;;
11024;SDS011;22890;51.820;8.682;2022-12-16T04:49:30;3.97;;;0.30;;
11024;SDS011;22890;51.820;8.682;2022-12-16T04:52:16;0.40;;;0.40;;
11024;SDS011;22890;51.820;8.682;2022-12-16T04:55:02;1.83;;;1.13;;
11024;SDS011;22890;51.820;8.682;2022-12-16T04:57:52;0.50;;;0.50;;
11024;SDS011;22890;51.820;8.682;2022-12-16T05:00:38;2.63;;;0.30;;
11024;SDS011;22890;51.820;8.682;2022-12-16T05:03:24;0.50;;;0.30;;
11024;SDS011;22890;51.820;8.682;2022-12-16T05:06:10;0.43;;;0.40;;
11024;SDS011;22890;51.820;8.682;2022-12-16T05:08:57;0.87;;;0.30;;
11024;SDS011;22890;51.820;8.682;2022-12-16T05:11:43;0.20;;;0.20;;
11024;SDS011;22890;51.820;8.682;2022-12-16T05:14:28;0.13;;;0.13;;
11024;SDS011;22890;51.820;8.682;2022-12-16T05:17:15;0.37;;;0.20;;
11024;SDS011;22890;51.820;8.682;2022-12-16T05:20:00;2.00;;;0.30;;
11024;SDS011;22890;51.820;8.682;2022-12-16T05:22:47;0.30;;;0.30;;
11024;SDS011;22890;51.820;8.682;2022-12-16T05:25:33;0.63;;;0.40;;
11024;SDS011;22890;51.820;8.682;2022-12-16T05:28:19;0.70;;;0.70;;
11024;SDS011;22890;51.820;8.682;2022-12-16T05:31:05;0.30;;;0.30;;
11024;SDS011;22890;51.820;8.682;2022-12-16T05:33:51;0.57;;;0.23;;
11024;SDS011;22890;51.820;8.682;2022-12-16T05:36:37;2.40;;;0.40;;
11024;SDS011;22890;51.820;8.682;2022-12-16T05:39:22;0.30;;;0.30;;
11024;SDS011;22890;51.820;8.682;2022-12-16T05:42:09;0.20;;;0.20;;
11024;SDS011;22890;51.820;8.682;2022-12-16T05:44:54;0.10;;;0.10;;
11024;SDS011;22890;51.820;8.682;2022-12-16T05:47:40;0.70;;;0.63;;
11024;SDS011;22890;51.820;8.682;2022-12-16T05:50:26;0.83;;;0.47;;
11024;SDS011;22890;51.820;8.682;2022-12-16T05:53:11;0.20;;;0.20;;
11024;SDS011;22890;51.820;8.682;2022-12-16T05:55:58;1.30;;;0.40;;
11024;SDS011;22890;51.820;8.682;2022-12-16T05:58:43;0.33;;;0.30;;
11024;SDS011;22890;51.820;8.682;2022-12-16T06:01:29;1.23;;;0.20;;
11024;SDS011;22890;51.820;8.682;2022-12-16T06:04:16;4.70;;;0.30;;
11024;SDS011;22890;51.820;8.682;2022-12-16T06:07:01;0.87;;;0.40;;
11024;SDS011;22890;51.820;8.682;2022-12-16T06:09:47;0.47;;;0.40;;
11024;SDS011;22890;51.820;8.682;2022-12-16T06:12:33;0.20;;;0.20;;
11024;SDS011;22890;51.820;8.682;2022-12-16T06:15:19;0.20;;;0.20;;
11024;SDS011;22890;51.820;8.682;2022-12-16T06:18:05;0.20;;;0.20;;
11024;SDS011;22890;51.820;8.682;2022-12-16T06:20:51;0.30;;;0.30;;
11024;SDS011;22890;51.820;8.682;2022-12-16T06:23:47;0.10;;;0.10;;
11024;SDS011;22890;51.820;8.682;2022-12-16T06:26:33;0.30;;;0.30;;
11024;SDS011;22890;51.820;8.682;2022-12-16T06:29:19;0.93;;;0.40;;
11024;SDS011;22890;51.820;8.682;2022-12-16T06:32:05;6.17;;;0.70;;
11024;SDS011;22890;51.820;8.682;2022-12-16T06:34:51;0.47;;;0.47;;
11024;SDS011;22890;51.820;8.682;2022-12-16T06:37:37;0.50;;;0.50;;
11024;SDS011;22890;51.820;8.682;2022-12-16T06:40:23;0.27;;;0.27;;
11024;SDS011;22890;51.820;8.682;2022-12-16T06:43:09;0.63;;;0.63;;
11024;SDS011;22890;51.820;8.682;2022-12-16T06:45:55;2.00;;;0.27;;
11024;SDS011;22890;51.820;8.682;2022-12-16T06:48:41;4.87;;;0.70;;
11024;SDS011;22890;51.820;8.682;2022-12-16T06:51:27;1.10;;;0.60;;
11024;SDS011;22890;51.820;8.682;2022-12-16T06:54:12;0.40;;;0.40;;
11024;SDS011;22890;51.820;8.682;2022-12-16T06:56:58;0.30;;;0.30;;
11024;SDS011;22890;51.820;8.682;2022-12-16T06:59:43;4.37;;;0.60;;
11024;SDS011;22890;51.820;8.682;2022-12-16T07:02:29;0.60;;;0.43;;
11024;SDS011;22890;51.820;8.682;2022-12-16T07:05:16;2.33;;;0.60;;
11024;SDS011;22890;51.820;8.682;2022-12-16T07:08:01;1.40;;;0.30;;
11024;SDS011;22890;51.820;8.682;2022-12-16T07:10:47;0.50;;;0.40;;
11024;SDS011;22890;51.820;8.682;2022-12-16T07:13:42;1.77;;;0.77;;
11024;SDS011;22890;51.820;8.682;2022-12-16T07:16:28;3.47;;;0.87;;
11024;SDS011;22890;51.820;8.682;2022-12-16T07:19:14;1.87;;;0.30;;
11024;SDS011;22890;51.820;8.682;2022-12-16T07:22:00;0.67;;;0.40;;
11024;SDS011;22890;51.820;8.682;2022-12-16T07:24:46;1.47;;;0.60;;
11024;SDS011;22890;51.820;8.682;2022-12-16T07:27:31;1.37;;;0.70;;
11024;SDS011;22890;51.820;8.682;2022-12-16T07:30:17;0.47;;;0.47;;
11024;SDS011;22890;51.820;8.682;2022-12-16T07:33:03;5.20;;;0.50;;
11024;SDS011;22890;51.820;8.682;2022-12-16T07:35:49;0.83;;;0.53;;
11024;SDS011;22890;51.820;8.682;2022-12-16T07:38:35;5.60;;;0.70;;
11024;SDS011;22890;51.820;8.682;2022-12-16T07:41:21;1.17;;;1.07;;
11024;SDS011;22890;51.820;8.682;2022-12-16T07:44:07;1.60;;;0.67;;
11024;SDS011;22890;51.820;8.682;2022-12-16T07:46:52;0.77;;;0.77;;
11024;SDS011;22890;51.820;8.682;2022-12-16T07:49:38;1.63;;;0.83;;
11024;SDS011;22890;51.820;8.682;2022-12-16T07:52:24;0.40;;;0.40;;
11024;SDS011;22890;51.820;8.682;2022-12-16T07:55:10;0.67;;;0.63;;
11024;SDS011;22890;51.820;8.682;2022-12-16T07:57:55;0.93;;;0.70;;
11024;SDS011;22890;51.820;8.682;2022-12-16T08:00:41;3.87;;;0.60;;
11024;SDS011;22890;51.820;8.682;2022-12-16T08:03:34;0.50;;;0.50;;
11024;SDS011;22890;51.820;8.682;2022-12-16T08:06:21;0.53;;;0.53;;
11024;SDS011;22890;51.820;8.682;2022-12-16T08:09:07;11.80;;;0.60;;
11024;SDS011;22890;51.820;8.682;2022-12-16T08:11:52;0.30;;;0.30;;
11024;SDS011;22890;51.820;8.682;2022-12-16T08:14:39;1.23;;;0.50;;
11024;SDS011;22890;51.820;8.682;2022-12-16T08:17:25;2.90;;;0.90;;
11024;SDS011;22890;51.820;8.682;2022-12-16T08:20:11;1.10;;;0.60;;
11024;SDS011;22890;51.820;8.682;2022-12-16T08:22:57;0.70;;;0.70;;
11024;SDS011;22890;51.820;8.682;2022-12-16T08:25:42;0.37;;;0.30;;
11024;SDS011;22890;51.820;8.682;2022-12-16T08:28:28;0.87;;;0.87;;
11024;SDS011;22890;51.820;8.682;2022-12-16T08:31:18;6.43;;;0.73;;
11024;SDS011;22890;51.820;8.682;2022-12-16T08:34:04;1.13;;;0.43;;
11024;SDS011;22890;51.820;8.682;2022-12-16T08:36:50;1.40;;;0.60;;
11024;SDS011;22890;51.820;8.682;2022-12-16T08:39:36;0.30;;;0.30;;
11024;SDS011;22890;51.820;8.682;2022-12-16T08:42:42;0.30;;;0.30;;
11024;SDS011;22890;51.820;8.682;2022-12-16T08:45:36;0.20;;;0.20;;
11024;SDS011;22890;51.820;8.682;2022-12-16T08:48:22;1.60;;;0.47;;
11024;SDS011;22890;51.820;8.682;2022-12-16T08:51:08;0.70;;;0.40;;
11024;SDS011;22890;51.820;8.682;2022-12-16T08:53:53;2.13;;;0.53;;
11024;SDS011;22890;51.820;8.682;2022-12-16T08:56:39;0.40;;;0.40;;
11024;SDS011;22890;51.820;8.682;2022-12-16T08:59:25;1.13;;;0.60;;
11024;SDS011;22890;51.820;8.682;2022-12-16T09:02:11;3.40;;;2.20;;
11024;SDS011;22890;51.820;8.682;2022-12-16T09:04:57;0.50;;;0.40;;
11024;SDS011;22890;51.820;8.682;2022-12-16T09:07:42;0.90;;;0.60;;
11024;SDS011;22890;51.820;8.682;2022-12-16T09:10:28;0.63;;;0.50;;
11024;SDS011;22890;51.820;8.682;2022-12-16T09:13:14;1.13;;;0.63;;
11024;SDS011;22890;51.820;8.682;2022-12-16T09:16:01;1.47;;;0.50;;
11024;SDS011;22890;51.820;8.682;2022-12-16T09:18:46;1.00;;;0.50;;
11024;SDS011;22890;51.820;8.682;2022-12-16T09:21:32;2.17;;;0.57;;
11024;SDS011;22890;51.820;8.682;2022-12-16T09:24:20;3.07;;;1.00;;
11024;SDS011;22890;51.820;8.682;2022-12-16T09:27:05;1.30;;;1.20;;
11024;SDS011;22890;51.820;8.682;2022-12-16T09:29:52;4.50;;;2.03;;
11024;SDS011;22890;51.820;8.682;2022-12-16T09:32:43;4.67;;;2.13;;
11024;SDS011;22890;51.820;8.682;2022-12-16T09:35:29;3.23;;;2.80;;
11024;SDS011;22890;51.820;8.682;2022-12-16T09:38:16;3.90;;;1.77;;
11024;SDS011;22890;51.820;8.682;2022-12-16T09:46:59;4.57;;;2.53;;
11024;SDS011;22890;51.820;8.682;2022-12-16T09:49:51;1.30;;;1.20;;
11024;SDS011;22890;51.820;8.682;2022-12-16T09:52:41;7.10;;;2.47;;
11024;SDS011;22890;51.820;8.682;2022-12-16T09:55:35;6.10;;;4.40;;
11024;SDS011;22890;51.820;8.682;2022-12-16T09:58:27;3.90;;;3.30;;
11024;SDS011;22890;51.820;8.682;2022-12-16T10:01:17;5.20;;;3.03;;
11024;SDS011;22890;51.820;8.682;2022-12-16T10:04:07;4.43;;;3.03;;
11024;SDS011;22890;51.820;8.682;2022-12-16T10:06:57;3.93;;;2.43;;
11024;SDS011;22890;51.820;8.682;2022-12-16T10:12:43;5.83;;;2.50;;
11024;SDS011;22890;51.820;8.682;2022-12-16T10:21:22;5.10;;;2.90;;
11024;SDS011;22890;51.820;8.682;2022-12-16T10:24:18;3.57;;;2.43;;
11024;SDS011;22890;51.820;8.682;2022-12-16T10:27:14;6.40;;;2.93;;
11024;SDS011;22890;51.820;8.682;2022-12-16T10:30:08;5.83;;;2.00;;
11024;SDS011;22890;51.820;8.682;2022-12-16T10:32:56;5.13;;;3.43;;
11024;SDS011;22890;51.820;8.682;2022-12-16T10:35:45;8.03;;;4.07;;
11024;SDS011;22890;51.820;8.682;2022-12-16T10:38:37;12.77;;;5.17;;
11024;SDS011;22890;51.820;8.682;2022-12-16T10:41:36;5.47;;;2.67;;
11024;SDS011;22890;51.820;8.682;2022-12-16T10:47:44;6.93;;;3.93;;
11024;SDS011;22890;51.820;8.682;2022-12-16T10:50:30;11.77;;;6.10;;
11024;SDS011;22890;51.820;8.682;2022-12-16T10:53:24;9.17;;;6.57;;
11024;SDS011;22890;51.820;8.682;2022-12-16T10:59:35;10.63;;;3.13;;
11024;SDS011;22890;51.820;8.682;2022-12-16T11:02:23;8.43;;;2.93;;
11024;SDS011;22890;51.820;8.682;2022-12-16T11:08:22;7.70;;;4.30;;
11024;SDS011;22890;51.820;8.682;2022-12-16T11:11:19;11.37;;;5.30;;
11024;SDS011;22890;51.820;8.682;2022-12-16T11:14:23;5.13;;;4.00;;
11024;SDS011;22890;51.820;8.682;2022-12-16T11:17:32;9.47;;;4.20;;
11024;SDS011;22890;51.820;8.682;2022-12-16T11:20:19;7.23;;;5.13;;
11024;SDS011;22890;51.820;8.682;2022-12-16T11:23:07;6.53;;;3.00;;
11024;SDS011;22890;51.820;8.682;2022-12-16T11:29:08;4.27;;;3.10;;
11024;SDS011;22890;51.820;8.682;2022-12-16T11:31:56;4.30;;;3.10;;
11024;SDS011;22890;51.820;8.682;2022-12-16T11:35:02;6.93;;;4.10;;
11024;SDS011;22890;51.820;8.682;2022-12-16T11:37:49;5.87;;;3.47;;
11024;SDS011;22890;51.820;8.682;2022-12-16T11:40:38;6.93;;;3.63;;
11024;SDS011;22890;51.820;8.682;2022-12-16T11:43:24;6.13;;;3.67;;
11024;SDS011;22890;51.820;8.682;2022-12-16T11:46:26;4.57;;;3.40;;
11024;SDS011;22890;51.820;8.682;2022-12-16T11:49:31;10.23;;;3.60;;
11024;SDS011;22890;51.820;8.682;2022-12-16T11:52:27;7.60;;;3.70;;
11024;SDS011;22890;51.820;8.682;2022-12-16T11:55:26;9.60;;;5.13;;
11024;SDS011;22890;51.820;8.682;2022-12-16T11:58:38;7.93;;;4.80;;
11024;SDS011;22890;51.820;8.682;2022-12-16T12:04:37;6.87;;;5.00;;
11024;SDS011;22890;51.820;8.682;2022-12-16T12:07:33;9.37;;;5.63;;
11024;SDS011;22890;51.820;8.682;2022-12-16T12:16:33;10.10;;;6.03;;
11024;SDS011;22890;51.820;8.682;2022-12-16T12:19:32;14.87;;;8.20;;
11024;SDS011;22890;51.820;8.682;2022-12-16T12:25:23;9.30;;;6.03;;
11024;SDS011;22890;51.820;8.682;2022-12-16T12:30:58;16.27;;;7.27;;
11024;SDS011;22890;51.820;8.682;2022-12-16T12:36:59;8.10;;;7.30;;
11024;SDS011;22890;51.820;8.682;2022-12-16T12:39:55;9.57;;;5.97;;
11024;SDS011;22890;51.820;8.682;2022-12-16T12:42:52;14.53;;;7.27;;
11024;SDS011;22890;51.820;8.682;2022-12-16T12:48:53;17.47;;;8.33;;
11024;SDS011;22890;51.820;8.682;2022-12-16T12:57:32;14.50;;;7.00;;
11024;SDS011;22890;51.820;8.682;2022-12-16T13:00:21;10.43;;;6.57;;
11024;SDS011;22890;51.820;8.682;2022-12-16T13:05:55;9.93;;;6.37;;
11024;SDS011;22890;51.820;8.682;2022-12-16T13:11:39;9.23;;;6.47;;
11024;SDS011;22890;51.820;8.682;2022-12-16T13:20:43;9.23;;;6.13;;
11024;SDS011;22890;51.820;8.682;2022-12-16T13:23:30;7.80;;;6.07;;
11024;SDS011;22890;51.820;8.682;2022-12-16T13:26:19;8.73;;;5.67;;
11024;SDS011;22890;51.820;8.682;2022-12-16T13:32:18;8.70;;;5.70;;
11024;SDS011;22890;51.820;8.682;2022-12-16T13:37:55;19.77;;;7.97;;
11024;SDS011;22890;51.820;8.682;2022-12-16T13:40:56;10.23;;;6.73;;
11024;SDS011;22890;51.820;8.682;2022-12-16T13:43:55;9.73;;;6.20;;
11024;SDS011;22890;51.820;8.682;2022-12-16T13:46:45;9.20;;;5.73;;
11024;SDS011;22890;51.820;8.682;2022-12-16T13:55:31;10.87;;;5.67;;
11024;SDS011;22890;51.820;8.682;2022-12-16T13:58:35;15.00;;;8.17;;
11024;SDS011;22890;51.820;8.682;2022-12-16T14:04:32;18.30;;;10.20;;
11024;SDS011;22890;51.820;8.682;2022-12-16T14:07:20;14.90;;;7.20;;
11024;SDS011;22890;51.820;8.682;2022-12-16T14:10:27;11.73;;;7.10;;
11024;SDS011;22890;51.820;8.682;2022-12-16T14:22:15;11.37;;;6.63;;
11024;SDS011;22890;51.820;8.682;2022-12-16T14:25:12;10.80;;;6.10;;
11024;SDS011;22890;51.820;8.682;2022-12-16T14:28:00;10.57;;;5.77;;
11024;SDS011;22890;51.820;8.682;2022-12-16T14:31:01;11.63;;;7.33;;
11024;SDS011;22890;51.820;8.682;2022-12-16T14:33:55;7.90;;;5.53;;
11024;SDS011;22890;51.820;8.682;2022-12-16T14:36:41;10.47;;;6.33;;
11024;SDS011;22890;51.820;8.682;2022-12-16T14:39:29;16.43;;;7.83;;
11024;SDS011;22890;51.820;8.682;2022-12-16T14:42:28;8.83;;;6.60;;
11024;SDS011;22890;51.820;8.682;2022-12-16T14:45:19;12.47;;;5.70;;
11024;SDS011;22890;51.820;8.682;2022-12-16T14:48:13;13.60;;;6.27;;
11024;SDS011;22890;51.820;8.682;2022-12-16T14:51:13;10.67;;;5.97;;
11024;SDS011;22890;51.820;8.682;2022-12-16T14:57:02;10.90;;;6.37;;
11024;SDS011;22890;51.820;8.682;2022-12-16T14:59:58;15.03;;;5.10;;
11024;SDS011;22890;51.820;8.682;2022-12-16T15:02:54;6.83;;;5.47;;
11024;SDS011;22890;51.820;8.682;2022-12-16T15:05:46;10.77;;;5.87;;
11024;SDS011;22890;51.820;8.682;2022-12-16T15:08:33;9.27;;;5.73;;
11024;SDS011;22890;51.820;8.682;2022-12-16T15:11:23;12.60;;;7.30;;
11024;SDS011;22890;51.820;8.682;2022-12-16T15:14:11;12.73;;;7.43;;
11024;SDS011;22890;51.820;8.682;2022-12-16T15:17:01;27.27;;;14.87;;
11024;SDS011;22890;51.820;8.682;2022-12-16T15:19:48;10.17;;;7.13;;
11024;SDS011;22890;51.820;8.682;2022-12-16T15:22:36;11.60;;;7.90;;
11024;SDS011;22890;51.820;8.682;2022-12-16T15:25:28;8.37;;;6.23;;
11024;SDS011;22890;51.820;8.682;2022-12-16T15:28:22;10.97;;;6.00;;
11024;SDS011;22890;51.820;8.682;2022-12-16T15:31:14;10.00;;;5.90;;
11024;SDS011;22890;51.820;8.682;2022-12-16T15:37:12;12.30;;;6.80;;
11024;SDS011;22890;51.820;8.682;2022-12-16T15:40:17;8.87;;;6.20;;
11024;SDS011;22890;51.820;8.682;2022-12-16T15:43:03;11.27;;;6.80;;
11024;SDS011;22890;51.820;8.682;2022-12-16T15:45:49;14.53;;;6.60;;
11024;SDS011;22890;51.820;8.682;2022-12-16T15:48:35;12.43;;;7.13;;
11024;SDS011;22890;51.820;8.682;2022-12-16T15:54:23;11.87;;;7.13;;
11024;SDS011;22890;51.820;8.682;2022-12-16T15:57:25;9.63;;;5.50;;
11024;SDS011;22890;51.820;8.682;2022-12-16T16:00:25;8.17;;;5.77;;
11024;SDS011;22890;51.820;8.682;2022-12-16T16:06:22;7.87;;;5.50;;
11024;SDS011;22890;51.820;8.682;2022-12-16T16:09:13;14.63;;;7.07;;
11024;SDS011;22890;51.820;8.682;2022-12-16T16:11:59;10.23;;;5.63;;
11024;SDS011;22890;51.820;8.682;2022-12-16T16:14:45;9.57;;;6.23;;
11024;SDS011;22890;51.820;8.682;2022-12-16T16:17:31;7.37;;;4.63;;
11024;SDS011;22890;51.820;8.682;2022-12-16T16:20:17;11.67;;;6.07;;
11024;SDS011;22890;51.820;8.682;2022-12-16T16:23:03;7.60;;;5.07;;
11024;SDS011;22890;51.820;8.682;2022-12-16T16:25:49;8.67;;;5.23;;
11024;SDS011;22890;51.820;8.682;2022-12-16T16:28:35;7.03;;;5.00;;
11024;SDS011;22890;51.820;8.682;2022-12-16T16:31:21;7.07;;;4.93;;
11024;SDS011;22890;51.820;8.682;2022-12-16T16:34:07;9.67;;;5.93;;
11024;SDS011;22890;51.820;8.682;2022-12-16T16:36:54;8.37;;;5.70;;
11024;SDS011;22890;51.820;8.682;2022-12-16T16:39:42;9.97;;;5.70;;
11024;SDS011;22890;51.820;8.682;2022-12-16T16:42:28;7.97;;;5.30;;
11024;SDS011;22890;51.820;8.682;2022-12-16T16:45:14;7.17;;;5.43;;
11024;SDS011;22890;51.820;8.682;2022-12-16T16:48:10;7.23;;;4.93;;
11024;SDS011;22890;51.820;8.682;2022-12-16T16:50:58;8.37;;;5.50;;
11024;SDS011;22890;51.820;8.682;2022-12-16T16:53:44;13.93;;;5.27;;
11024;SDS011;22890;51.820;8.682;2022-12-16T16:56:32;7.70;;;4.70;;
11024;SDS011;22890;51.820;8.682;2022-12-16T16:59:22;9.73;;;4.63;;
11024;SDS011;22890;51.820;8.682;2022-12-16T17:02:18;12.13;;;6.03;;
11024;SDS011;22890;51.820;8.682;2022-12-16T17:05:07;6.60;;;5.30;;
11024;SDS011;22890;51.820;8.682;2022-12-16T17:07:56;5.53;;;4.00;;
11024;SDS011;22890;51.820;8.682;2022-12-16T17:10:42;6.73;;;4.97;;
11024;SDS011;22890;51.820;8.682;2022-12-16T17:13:28;9.87;;;4.53;;
11024;SDS011;22890;51.820;8.682;2022-12-16T17:16:14;8.27;;;4.60;;
11024;SDS011;22890;51.820;8.682;2022-12-16T17:19:16;7.00;;;4.37;;
11024;SDS011;22890;51.820;8.682;2022-12-16T17:22:02;6.37;;;4.13;;
11024;SDS011;22890;51.820;8.682;2022-12-16T17:24:48;6.63;;;4.37;;
11024;SDS011;22890;51.820;8.682;2022-12-16T17:27:34;9.43;;;4.03;;
11024;SDS011;22890;51.820;8.682;2022-12-16T17:30:20;8.93;;;5.50;;
11024;SDS011;22890;51.820;8.682;2022-12-16T17:33:13;8.30;;;4.77;;
11024;SDS011;22890;51.820;8.682;2022-12-16T17:36:00;5.73;;;4.20;;
11024;SDS011;22890;51.820;8.682;2022-12-16T17:38:45;5.83;;;4.07;;
11024;SDS011;22890;51.820;8.682;2022-12-16T17:41:32;11.23;;;5.10;;
11024;SDS011;22890;51.820;8.682;2022-12-16T17:44:17;5.90;;;3.67;;
11024;SDS011;22890;51.820;8.682;2022-12-16T17:47:04;6.23;;;4.13;;
11024;SDS011;22890;51.820;8.682;2022-12-16T17:49:50;8.97;;;4.93;;
11024;SDS011;22890;51.820;8.682;2022-12-16T17:52:36;6.27;;;3.73;;
11024;SDS011;22890;51.820;8.682;2022-12-16T17:55:22;6.60;;;3.50;;
11024;SDS011;22890;51.820;8.682;2022-12-16T17:58:08;4.97;;;3.53;;
11024;SDS011;22890;51.820;8.682;2022-12-16T18:01:00;6.67;;;3.77;;
11024;SDS011;22890;51.820;8.682;2022-12-16T18:03:46;5.27;;;3.53;;
11024;SDS011;22890;51.820;8.682;2022-12-16T18:06:32;9.13;;;4.27;;
11024;SDS011;22890;51.820;8.682;2022-12-16T18:09:18;5.37;;;3.47;;
11024;SDS011;22890;51.820;8.682;2022-12-16T18:12:04;9.30;;;4.10;;
11024;SDS011;22890;51.820;8.682;2022-12-16T18:14:49;4.10;;;3.60;;
11024;SDS011;22890;51.820;8.682;2022-12-16T18:17:36;5.83;;;4.17;;
11024;SDS011;22890;51.820;8.682;2022-12-16T18:20:21;7.07;;;3.97;;
11024;SDS011;22890;51.820;8.682;2022-12-16T18:23:07;11.07;;;5.33;;
11024;SDS011;22890;51.820;8.682;2022-12-16T18:25:59;13.33;;;6.27;;
11024;SDS011;22890;51.820;8.682;2022-12-16T18:28:57;14.97;;;9.93;;
11024;SDS011;22890;51.820;8.682;2022-12-16T18:31:43;17.70;;;7.07;;
11024;SDS011;22890;51.820;8.682;2022-12-16T18:34:29;5.47;;;3.87;;
11024;SDS011;22890;51.820;8.682;2022-12-16T18:37:14;5.40;;;3.37;;